Time;durP1;ratioP1;P1;durP2;ratioP2;P2;SDS_P1;SDS_P2;PMS_P1;PMS_P2;Temp;Humidity;BMP_temperature;BMP_pressure;BME280_temperature;BME280_humidity;BME280_pressure;Samples;Min_cycle;Max_cycle;Signal;HPM_P1;HPM_P2
2022/08/08 00:00:29;;;;;;;0.20;0.10;;;;;;;;;;6183882;22;20412;-85
2022/08/08 00:03:08;;;;;;;0.20;0.10;;;;;;;;;;6183138;22;20012;-85
2022/08/08 00:05:39;;;;;;;0.20;0.10;;;;;;;;;;6182722;22;20065;-86
2022/08/08 00:08:14;;;;;;;0.20;0.10;;;;;;;;;;6232682;23;20016;-86
2022/08/08 00:10:55;;;;;;;0.20;0.10;;;;;;;;;;6181434;22;20060;-87
2022/08/08 00:13:21;;;;;;;0.20;0.10;;;;;;;;;;6231679;23;20022;-86
2022/08/08 00:15:52;;;;;;;0.20;0.10;;;;;;;;;;6182030;22;20009;-86
2022/08/08 00:18:18;;;;;;;0.20;0.10;;;;;;;;;;6181963;22;20012;-86
2022/08/08 00:20:49;;;;;;;0.20;0.10;;;;;;;;;;6181826;22;20050;-86
2022/08/08 00:23:17;;;;;;;0.20;0.10;;;;;;;;;;6182609;23;20065;-87
2022/08/08 00:25:47;;;;;;;0.20;0.03;;;;;;;;;;6182034;22;20016;-85
2022/08/08 00:28:15;;;;;;;0.20;0.10;;;;;;;;;;6232395;23;20070;-86
2022/08/08 00:30:45;;;;;;;0.20;0.10;;;;;;;;;;6182451;22;20020;-87
2022/08/08 00:33:13;;;;;;;0.20;0.10;;;;;;;;;;6182185;22;20535;-86
2022/08/08 00:35:42;;;;;;;0.20;0.10;;;;;;;;;;6181940;22;20012;-87
2022/08/08 00:38:20;;;;;;;0.20;0.10;;;;;;;;;;6182674;22;20008;-87
2022/08/08 00:40:49;;;;;;;0.20;0.10;;;;;;;;;;6181430;22;20012;-86
2022/08/08 00:43:18;;;;;;;0.20;0.10;;;;;;;;;;6182602;22;20016;-87
2022/08/08 00:46:03;;;;;;;0.20;0.10;;;;;;;;;;6182510;22;20016;-87
2022/08/08 00:48:41;;;;;;;0.20;0.10;;;;;;;;;;6182095;22;20016;-87
2022/08/08 00:51:16;;;;;;;0.20;0.10;;;;;;;;;;6182259;23;20025;-87
2022/08/08 00:53:42;;;;;;;0.20;0.10;;;;;;;;;;6182118;23;20344;-87
2022/08/08 00:56:11;;;;;;;0.20;0.10;;;;;;;;;;6183428;22;20028;-87
2022/08/08 00:58:40;;;;;;;0.73;0.45;;;;;;;;;;6182068;22;20059;-87
2022/08/08 01:01:15;;;;;;;0.20;0.10;;;;;;;;;;6181757;22;20055;-88
2022/08/08 01:04:00;;;;;;;0.20;0.10;;;;;;;;;;6182293;22;20013;-86
2022/08/08 01:06:38;;;;;;;0.20;0.10;;;;;;;;;;6183654;22;20378;-86
2022/08/08 01:09:21;;;;;;;0.20;0.10;;;;;;;;;;6184185;22;20471;-87
2022/08/08 01:11:47;;;;;;;;;;;;;;;;;;6181838;22;20012;-87
2022/08/08 01:14:22;;;;;;;0.20;0.10;;;;;;;;;;6206751;23;19916;-88
2022/08/08 01:17:02;;;;;;;0.20;0.10;;;;;;;;;;6181783;22;20407;-88
2022/08/08 01:19:28;;;;;;;0.20;0.10;;;;;;;;;;6181670;22;20015;-87
2022/08/08 01:22:11;;;;;;;0.20;0.10;;;;;;;;;;6232223;22;20017;-88
2022/08/08 01:24:37;;;;;;;0.20;0.10;;;;;;;;;;6181986;22;20020;-87
2022/08/08 01:27:26;;;;;;;0.20;0.10;;;;;;;;;;6183211;22;20012;-89
2022/08/08 01:29:55;;;;;;;0.20;0.10;;;;;;;;;;6182990;22;20027;-87
2022/08/08 01:32:21;;;;;;;0.20;0.10;;;;;;;;;;6233474;23;20012;-88
2022/08/08 01:35:00;;;;;;;0.20;0.10;;;;;;;;;;6183390;22;20360;-88
2022/08/08 01:37:44;;;;;;;0.20;0.10;;;;;;;;;;6233877;23;20092;-88
2022/08/08 01:40:27;;;;;;;0.20;0.10;;;;;;;;;;6183213;22;20463;-88
2022/08/08 01:42:53;;;;;;;;;;;;;;;;;;6184820;22;20023;-88
2022/08/08 01:45:25;;;;;;;0.20;0.10;;;;;;;;;;6208698;23;20332;-87
2022/08/08 01:48:10;;;;;;;0.20;0.10;;;;;;;;;;6183221;22;20448;-87
2022/08/08 01:50:39;;;;;;;0.20;0.10;;;;;;;;;;6182512;22;20337;-88
2022/08/08 01:53:24;;;;;;;0.20;0.10;;;;;;;;;;6183912;22;20079;-88
2022/08/08 01:56:09;;;;;;;0.20;0.10;;;;;;;;;;6183354;22;20012;-88
2022/08/08 01:58:42;;;;;;;0.20;0.10;;;;;;;;;;6182590;22;20020;-90
2022/08/08 02:01:27;;;;;;;0.20;0.10;;;;;;;;;;6182996;22;20019;-88
2022/08/08 02:03:56;;;;;;;0.20;0.10;;;;;;;;;;6182866;22;20329;-88
2022/08/08 02:06:41;;;;;;;0.20;0.10;;;;;;;;;;6183708;22;20012;-88
2022/08/08 02:09:22;;;;;;;0.20;0.10;;;;;;;;;;6183502;22;20479;-87
2022/08/08 02:11:49;;;;;;;0.20;0.10;;;;;;;;;;6183227;22;20081;-88
2022/08/08 02:14:24;;;;;;;0.20;0.10;;;;;;;;;;6233151;23;20020;-88
2022/08/08 02:17:08;;;;;;;0.20;0.10;;;;;;;;;;6185185;22;20076;-90
2022/08/08 02:19:41;;;;;;;0.20;0.10;;;;;;;;;;6183462;22;20008;-88
2022/08/08 02:29:33;;;;;;;0.20;0.10;;;;;;;;;;6133288;23;20330;-85
2022/08/08 02:32:53;;;;;;;;;;;;;;;;;;;;;
2022/08/08 02:35:51;;;;;;;;;;;;;;;;;;;;;
2022/08/08 02:38:44;;;;;;;0.20;0.10;;;;;;;;;;6233312;23;20035;-85
2022/08/08 02:41:23;;;;;;;0.20;0.10;;;;;;;;;;6232551;22;20084;-85
2022/08/08 02:44:19;;;;;;;0.20;0.10;;;;;;;;;;6184156;23;20035;-85
2022/08/08 02:47:26;;;;;;;0.20;0.10;;;;;;;;;;6184268;23;20016;-85
2022/08/08 02:50:05;;;;;;;0.20;0.10;;;;;;;;;;6181665;23;20093;-84
2022/08/08 02:52:53;;;;;;;0.20;0.10;;;;;;;;;;6182037;23;20020;-84
2022/08/08 02:55:38;;;;;;;0.20;0.10;;;;;;;;;;6214753;23;20024;-85
2022/08/08 02:58:31;;;;;;;0.20;0.10;;;;;;;;;;6233728;23;20020;-85
2022/08/08 03:00:57;;;;;;;0.20;0.10;;;;;;;;;;6182150;22;20020;-85
2022/08/08 03:03:42;;;;;;;0.20;0.10;;;;;;;;;;6182506;22;20020;-85
2022/08/08 03:06:27;;;;;;;0.20;0.10;;;;;;;;;;6182372;22;20039;-85
2022/08/08 03:09:12;;;;;;;0.20;0.10;;;;;;;;;;6182427;23;20009;-85
2022/08/08 03:11:54;;;;;;;0.20;0.10;;;;;;;;;;6232982;22;20325;-85
2022/08/08 03:14:32;;;;;;;0.20;0.10;;;;;;;;;;6183154;22;20012;-84
2022/08/08 03:17:17;;;;;;;0.20;0.10;;;;;;;;;;6182459;22;20018;-85
2022/08/08 03:19:46;;;;;;;0.20;0.10;;;;;;;;;;6182615;22;20008;-84
2022/08/08 03:22:12;;;;;;;0.50;0.32;;;;;;;;;;6182500;23;20016;-85
2022/08/08 03:24:38;;;;;;;0.20;0.10;;;;;;;;;;6182128;22;20100;-84
2022/08/08 03:27:18;;;;;;;0.20;0.10;;;;;;;;;;6182714;23;20027;-84
2022/08/08 03:29:53;;;;;;;0.20;0.10;;;;;;;;;;6187286;23;20318;-85
2022/08/08 03:35:05;;;;;;;0.20;0.10;;;;;;;;;;6207787;23;20021;-85
2022/08/08 03:37:31;;;;;;;0.20;0.10;;;;;;;;;;6232545;23;20448;-84
2022/08/08 03:40:00;;;;;;;0.20;0.10;;;;;;;;;;6232836;23;20440;-85
2022/08/08 03:42:26;;;;;;;0.20;0.20;;;;;;;;;;6183040;23;20080;-84
2022/08/08 03:44:52;;;;;;;0.20;0.10;;;;;;;;;;6182849;23;20020;-84
2022/08/08 03:47:22;;;;;;;0.20;0.10;;;;;;;;;;6182319;23;20028;-84
2022/08/08 03:49:49;;;;;;;0.20;0.10;;;;;;;;;;6181860;23;20052;-84
2022/08/08 03:52:15;;;;;;;0.20;0.10;;;;;;;;;;6181774;22;20113;-84
2022/08/08 03:54:43;;;;;;;0.20;0.10;;;;;;;;;;6182553;22;20050;-84
2022/08/08 03:57:13;;;;;;;0.20;0.10;;;;;;;;;;6182627;23;20013;-84
2022/08/08 03:59:39;;;;;;;0.20;0.10;;;;;;;;;;6182124;22;20016;-84
2022/08/08 04:02:18;;;;;;;0.20;0.10;;;;;;;;;;6182729;22;20012;-85
2022/08/08 04:04:45;;;;;;;0.20;0.10;;;;;;;;;;6233606;23;20016;-84
2022/08/08 04:07:11;;;;;;;0.57;0.52;;;;;;;;;;6183283;22;20045;-84
2022/08/08 04:09:38;;;;;;;0.20;0.10;;;;;;;;;;6232275;23;20116;-84
2022/08/08 04:12:04;;;;;;;0.20;0.10;;;;;;;;;;6182608;23;20009;-84
2022/08/08 04:14:30;;;;;;;0.20;0.10;;;;;;;;;;6182602;22;20035;-84
2022/08/08 04:16:56;;;;;;;0.20;0.10;;;;;;;;;;6180824;23;20012;-85
2022/08/08 04:19:22;;;;;;;0.20;0.10;;;;;;;;;;6179686;23;20585;-84
2022/08/08 04:21:48;;;;;;;0.20;0.10;;;;;;;;;;6178700;23;20016;-84
2022/08/08 04:24:14;;;;;;;0.20;0.10;;;;;;;;;;6180046;23;20269;-84
2022/08/08 04:26:41;;;;;;;0.20;0.10;;;;;;;;;;6181893;22;20012;-85
2022/08/08 04:29:07;;;;;;;0.20;0.10;;;;;;;;;;6179693;22;20016;-84
2022/08/08 04:31:33;;;;;;;0.20;0.10;;;;;;;;;;6181637;23;20015;-84
2022/08/08 04:33:59;;;;;;;0.20;0.10;;;;;;;;;;6181150;22;20068;-84
2022/08/08 04:36:25;;;;;;;0.20;0.10;;;;;;;;;;6233813;23;20012;-84
2022/08/08 04:38:51;;;;;;;0.20;0.10;;;;;;;;;;6230708;23;20151;-84
2022/08/08 04:41:17;;;;;;;0.20;0.10;;;;;;;;;;6180265;23;20024;-84
2022/08/08 04:43:43;;;;;;;0.20;0.05;;;;;;;;;;6230554;23;20012;-84
2022/08/08 04:46:10;;;;;;;0.20;0.10;;;;;;;;;;6180845;23;20486;-84
2022/08/08 04:48:36;;;;;;;0.20;0.10;;;;;;;;;;6181107;23;20019;-84
2022/08/08 04:51:02;;;;;;;0.20;0.10;;;;;;;;;;6206763;22;20099;-84
2022/08/08 04:53:28;;;;;;;0.20;0.10;;;;;;;;;;6180206;23;20515;-84
2022/08/08 04:55:54;;;;;;;0.20;0.10;;;;;;;;;;6177458;23;20430;-84
2022/08/08 04:58:20;;;;;;;0.20;0.10;;;;;;;;;;6178923;23;20012;-84
2022/08/08 05:00:46;;;;;;;0.20;0.10;;;;;;;;;;6178544;23;20015;-84
2022/08/08 05:03:12;;;;;;;0.20;0.10;;;;;;;;;;6179130;23;20016;-84
2022/08/08 05:05:38;;;;;;;0.20;0.10;;;;;;;;;;6183575;22;20016;-84
2022/08/08 05:08:05;;;;;;;0.20;0.10;;;;;;;;;;6183095;23;20038;-84
2022/08/08 05:10:31;;;;;;;0.20;0.10;;;;;;;;;;6233699;23;20312;-84
2022/08/08 05:12:57;;;;;;;0.20;0.10;;;;;;;;;;6179131;23;20012;-83
2022/08/08 05:15:23;;;;;;;0.20;0.10;;;;;;;;;;6182482;23;20020;-84
2022/08/08 05:17:49;;;;;;;0.20;0.10;;;;;;;;;;6182772;22;20047;-84
2022/08/08 05:20:15;;;;;;;0.20;0.10;;;;;;;;;;6232696;22;20016;-84
2022/08/08 05:22:41;;;;;;;0.20;0.10;;;;;;;;;;6183119;23;20019;-84
2022/08/08 05:25:08;;;;;;;0.20;0.10;;;;;;;;;;6182086;23;20446;-84
2022/08/08 05:27:34;;;;;;;0.20;0.10;;;;;;;;;;6233150;23;20018;-84
2022/08/08 05:30:01;;;;;;;0.20;0.10;;;;;;;;;;6183444;22;20026;-84
2022/08/08 05:32:28;;;;;;;0.20;0.10;;;;;;;;;;6182318;23;20272;-84
2022/08/08 05:34:57;;;;;;;0.20;0.10;;;;;;;;;;6233318;23;20376;-84
2022/08/08 05:37:24;;;;;;;0.20;0.10;;;;;;;;;;6183018;22;20099;-84
2022/08/08 05:39:52;;;;;;;0.20;0.10;;;;;;;;;;6182962;23;20482;-84
2022/08/08 05:42:19;;;;;;;0.20;0.10;;;;;;;;;;6233918;22;20023;-84
2022/08/08 05:44:50;;;;;;;0.20;0.10;;;;;;;;;;6184033;22;20482;-85
2022/08/08 05:47:16;;;;;;;0.20;0.10;;;;;;;;;;6233186;23;20059;-84
2022/08/08 05:49:45;;;;;;;0.20;0.10;;;;;;;;;;6182653;23;20016;-84
2022/08/08 05:52:11;;;;;;;0.20;0.10;;;;;;;;;;6181889;23;20120;-85
2022/08/08 05:54:37;;;;;;;0.20;0.10;;;;;;;;;;6183064;23;20016;-84
2022/08/08 05:57:04;;;;;;;0.20;0.10;;;;;;;;;;6182989;23;20341;-84
2022/08/08 05:59:32;;;;;;;0.20;0.10;;;;;;;;;;6183655;22;20012;-84
2022/08/08 06:01:58;;;;;;;0.20;0.10;;;;;;;;;;6182958;22;20494;-84
2022/08/08 06:04:26;;;;;;;0.20;0.10;;;;;;;;;;6183805;22;20023;-85
2022/08/08 06:07:02;;;;;;;0.20;0.10;;;;;;;;;;6184203;22;20392;-84
2022/08/08 06:09:36;;;;;;;0.20;0.10;;;;;;;;;;6183972;23;20016;-84
2022/08/08 06:12:12;;;;;;;0.20;0.10;;;;;;;;;;6233341;22;20054;-85
2022/08/08 06:14:38;;;;;;;0.20;0.10;;;;;;;;;;6183328;23;20070;-85
2022/08/08 06:17:05;;;;;;;0.20;0.10;;;;;;;;;;6188153;22;20016;-85
2022/08/08 06:19:36;;;;;;;0.20;0.10;;;;;;;;;;6185794;23;20069;-84
2022/08/08 06:22:05;;;;;;;0.20;0.10;;;;;;;;;;6185891;23;20016;-85
2022/08/08 06:24:31;;;;;;;0.20;0.10;;;;;;;;;;6186736;23;20039;-85
2022/08/08 06:27:33;;;;;;;;;;;;;;;;;;;;;
2022/08/08 06:30:24;;;;;;;0.20;0.10;;;;;;;;;;6209198;23;20097;-86
2022/08/08 06:33:32;;;;;;;0.20;0.10;;;;;;;;;;6185645;23;20016;-86
2022/08/08 06:36:26;;;;;;;0.20;0.10;;;;;;;;;;6184677;23;20056;-85
2022/08/08 06:39:11;;;;;;;0.20;0.10;;;;;;;;;;6185917;23;20012;-85
2022/08/08 06:41:48;;;;;;;0.20;0.10;;;;;;;;;;6183505;23;20103;-85
2022/08/08 06:44:18;;;;;;;0.20;0.10;;;;;;;;;;6208800;23;20016;-85
2022/08/08 06:46:58;;;;;;;0.20;0.10;;;;;;;;;;6181746;23;20047;-86
2022/08/08 06:49:26;;;;;;;0.20;0.10;;;;;;;;;;6188147;22;20067;-85
2022/08/08 06:51:55;;;;;;;0.20;0.10;;;;;;;;;;6182886;22;20307;-85
2022/08/08 06:54:22;;;;;;;0.20;0.10;;;;;;;;;;6183182;23;20035;-84
2022/08/08 06:56:54;;;;;;;0.20;0.10;;;;;;;;;;6233704;23;20095;-85
2022/08/08 06:59:23;;;;;;;0.20;0.10;;;;;;;;;;6183717;23;20013;-85
2022/08/08 07:01:59;;;;;;;0.20;0.10;;;;;;;;;;6183645;23;20011;-85
2022/08/08 07:04:31;;;;;;;0.20;0.10;;;;;;;;;;6184277;22;20051;-85
2022/08/08 07:07:03;;;;;;;0.20;0.10;;;;;;;;;;6183571;22;20027;-85
2022/08/08 07:09:47;;;;;;;0.20;0.10;;;;;;;;;;6234171;23;20016;-87
2022/08/08 07:12:19;;;;;;;0.20;0.10;;;;;;;;;;6182441;23;20087;-86
2022/08/08 07:15:14;;;;;;;0.20;0.10;;;;;;;;;;6208462;23;20543;-85
2022/08/08 07:17:48;;;;;;;0.20;0.10;;;;;;;;;;6214756;22;20062;-85
2022/08/08 07:20:22;;;;;;;0.30;0.20;;;;;;;;;;6187957;22;20019;-84
2022/08/08 07:22:55;;;;;;;0.20;0.10;;;;;;;;;;6183218;22;20328;-86
2022/08/08 07:25:24;;;;;;;;;;;;;;;;;;6183816;23;20019;-85
2022/08/08 07:27:51;;;;;;;0.20;0.10;;;;;;;;;;6208428;23;20236;-85
2022/08/08 07:30:17;;;;;;;0.20;0.08;;;;;;;;;;6184820;22;20012;-85
2022/08/08 07:32:43;;;;;;;0.20;0.10;;;;;;;;;;6185364;22;20225;-85
2022/08/08 07:35:13;;;;;;;0.30;0.28;;;;;;;;;;6183994;22;20024;-86
2022/08/08 07:37:39;;;;;;;0.20;0.10;;;;;;;;;;6186646;22;20096;-84
2022/08/08 07:40:26;;;;;;;0.20;0.10;;;;;;;;;;6240766;23;20292;-86
2022/08/08 07:42:55;;;;;;;0.20;0.10;;;;;;;;;;6193468;23;20016;-86
2022/08/08 07:45:24;;;;;;;0.20;0.10;;;;;;;;;;6194700;23;20016;-85
2022/08/08 07:48:05;;;;;;;0.20;0.10;;;;;;;;;;6194606;23;20507;-85
2022/08/08 07:51:12;;;;;;;;;;;;;;;;;;;;;
2022/08/08 07:54:08;;;;;;;0.20;0.10;;;;;;;;;;6247337;23;20020;-86
2022/08/08 07:56:40;;;;;;;0.20;0.10;;;;;;;;;;6241975;23;20031;-84
2022/08/08 07:59:21;;;;;;;0.20;0.10;;;;;;;;;;6193553;22;20047;-86
2022/08/08 08:02:06;;;;;;;0.20;0.10;;;;;;;;;;6165609;22;20039;-83
2022/08/08 08:04:33;;;;;;;0.20;0.10;;;;;;;;;;6178859;23;20091;-85
2022/08/08 08:07:00;;;;;;;0.20;0.10;;;;;;;;;;6178375;22;20031;-84
2022/08/08 08:09:28;;;;;;;0.20;0.10;;;;;;;;;;6310612;22;20019;-85
2022/08/08 08:11:55;;;;;;;0.20;0.10;;;;;;;;;;6196467;23;20013;-86
2022/08/08 08:16:58;;;;;;;0.20;0.10;;;;;;;;;;6233540;23;20124;-86
2022/08/08 08:19:29;;;;;;;0.20;0.10;;;;;;;;;;6207395;23;20019;-85
2022/08/08 08:21:55;;;;;;;0.20;0.10;;;;;;;;;;6207098;23;20475;-83
2022/08/08 08:24:24;;;;;;;0.20;0.10;;;;;;;;;;6157753;23;20397;-84
2022/08/08 08:26:50;;;;;;;0.20;0.10;;;;;;;;;;6182735;23;20054;-84
2022/08/08 08:29:16;;;;;;;0.20;0.10;;;;;;;;;;6286727;22;20359;-85
2022/08/08 08:31:42;;;;;;;0.20;0.10;;;;;;;;;;6181064;23;20039;-83
2022/08/08 08:34:08;;;;;;;0.20;0.10;;;;;;;;;;6286570;22;20600;-86
2022/08/08 08:36:34;;;;;;;0.20;0.10;;;;;;;;;;6181560;23;20491;-85
2022/08/08 08:39:01;;;;;;;0.20;0.10;;;;;;;;;;6181864;23;20015;-82
2022/08/08 08:41:27;;;;;;;0.20;0.10;;;;;;;;;;6287513;22;20012;-84
2022/08/08 08:43:54;;;;;;;0.20;0.10;;;;;;;;;;6181249;22;20019;-83
2022/08/08 08:46:20;;;;;;;0.20;0.10;;;;;;;;;;6232763;22;20012;-85
2022/08/08 08:48:46;;;;;;;0.20;0.10;;;;;;;;;;6234058;22;20083;-85
2022/08/08 08:51:13;;;;;;;0.20;0.10;;;;;;;;;;6186216;22;20019;-84
2022/08/08 08:54:06;;;;;;;0.20;0.10;;;;;;;;;;6185585;22;20020;-83
2022/08/08 08:56:32;;;;;;;;;;;;;;;;;;6211346;22;20043;-87
2022/08/08 08:58:58;;;;;;;0.20;0.10;;;;;;;;;;6235300;23;19915;-84
2022/08/08 09:01:26;;;;;;;0.20;0.10;;;;;;;;;;6185083;22;20009;-84
2022/08/08 09:03:55;;;;;;;0.20;0.08;;;;;;;;;;6184357;22;20487;-84
2022/08/08 09:06:25;;;;;;;0.20;0.10;;;;;;;;;;6185048;22;20044;-83
2022/08/08 09:09:01;;;;;;;0.20;0.10;;;;;;;;;;6184696;22;20250;-84
2022/08/08 09:11:31;;;;;;;0.20;0.10;;;;;;;;;;6184430;22;20444;-83
2022/08/08 09:13:57;;;;;;;0.20;0.10;;;;;;;;;;6235081;22;20012;-83
2022/08/08 09:16:24;;;;;;;0.20;0.10;;;;;;;;;;6235179;22;20518;-86
2022/08/08 09:18:52;;;;;;;0.20;0.10;;;;;;;;;;6290175;22;20312;-86
2022/08/08 09:21:18;;;;;;;0.20;0.10;;;;;;;;;;6184173;22;20008;-84
2022/08/08 09:23:45;;;;;;;0.20;0.10;;;;;;;;;;6287365;22;20016;-84
2022/08/08 09:26:16;;;;;;;0.20;0.10;;;;;;;;;;6231835;22;20092;-86
2022/08/08 09:28:42;;;;;;;0.20;0.10;;;;;;;;;;6181378;22;20016;-85
2022/08/08 09:31:29;;;;;;;0.20;0.10;;;;;;;;;;6180981;22;20012;-85
2022/08/08 09:33:55;;;;;;;0.20;0.10;;;;;;;;;;6211039;22;20056;-85
2022/08/08 09:36:22;;;;;;;0.20;0.08;;;;;;;;;;6180429;22;20065;-85
2022/08/08 09:38:56;;;;;;;0.20;0.10;;;;;;;;;;6284600;22;20041;-84
2022/08/08 09:41:30;;;;;;;0.20;0.10;;;;;;;;;;6231365;22;20046;-85
2022/08/08 09:44:00;;;;;;;0.20;0.10;;;;;;;;;;6181749;22;20071;-83
2022/08/08 09:46:28;;;;;;;0.20;0.10;;;;;;;;;;6182442;22;20088;-84
2022/08/08 09:48:55;;;;;;;0.20;0.10;;;;;;;;;;6235945;22;20020;-83
2022/08/08 09:51:28;;;;;;;0.20;0.10;;;;;;;;;;6185781;22;20045;-84
2022/08/08 09:53:58;;;;;;;0.20;0.10;;;;;;;;;;6236318;22;20015;-84
2022/08/08 09:56:24;;;;;;;0.20;0.10;;;;;;;;;;6236392;22;20066;-85
2022/08/08 09:59:01;;;;;;;0.20;0.10;;;;;;;;;;6186472;22;20301;-83
2022/08/08 10:01:29;;;;;;;0.20;0.10;;;;;;;;;;6186363;22;20479;-85
2022/08/08 10:03:57;;;;;;;0.20;0.10;;;;;;;;;;6185944;22;20091;-85
2022/08/08 10:06:23;;;;;;;0.20;0.10;;;;;;;;;;6186169;22;20012;-84
2022/08/08 10:08:51;;;;;;;0.20;0.10;;;;;;;;;;6292017;22;20020;-85
2022/08/08 10:11:17;;;;;;;0.20;0.10;;;;;;;;;;6185631;22;20108;-85
2022/08/08 10:14:19;;;;;;;0.20;0.10;;;;;;;;;;6185414;22;20023;-84
2022/08/08 10:16:45;;;;;;;0.20;0.10;;;;;;;;;;6239183;23;20091;-86
2022/08/08 10:19:11;;;;;;;0.20;0.10;;;;;;;;;;6211529;23;20359;-86
2022/08/08 10:21:38;;;;;;;0.20;0.10;;;;;;;;;;6182747;22;20019;-85
2022/08/08 10:24:05;;;;;;;0.20;0.10;;;;;;;;;;6183098;22;20036;-85
2022/08/08 10:26:41;;;;;;;0.20;0.10;;;;;;;;;;6183377;23;20339;-86
2022/08/08 10:29:08;;;;;;;0.20;0.10;;;;;;;;;;6183010;22;20019;-86
2022/08/08 10:34:20;;;;;;;0.20;0.10;;;;;;;;;;6207579;23;20107;-87
2022/08/08 10:36:47;;;;;;;0.20;0.10;;;;;;;;;;6182229;22;20012;-85
2022/08/08 10:39:17;;;;;;;0.20;0.10;;;;;;;;;;6232862;22;20012;-84
2022/08/08 10:41:45;;;;;;;0.20;0.10;;;;;;;;;;6232407;22;20016;-84
2022/08/08 10:44:12;;;;;;;0.20;0.10;;;;;;;;;;6232664;23;20016;-86
2022/08/08 10:46:40;;;;;;;0.20;0.10;;;;;;;;;;6288383;22;20052;-85
2022/08/08 10:49:06;;;;;;;0.20;0.10;;;;;;;;;;6182675;23;20023;-85
2022/08/08 10:51:36;;;;;;;0.20;0.10;;;;;;;;;;6286735;22;20012;-86
2022/08/08 10:54:02;;;;;;;0.20;0.10;;;;;;;;;;6288009;22;20063;-87
2022/08/08 10:56:36;;;;;;;0.20;0.10;;;;;;;;;;6232808;22;20008;-83
2022/08/08 10:59:09;;;;;;;0.20;0.10;;;;;;;;;;6181874;22;20509;-85
2022/08/08 11:01:36;;;;;;;0.20;0.10;;;;;;;;;;6288308;22;20008;-86
2022/08/08 11:04:06;;;;;;;0.20;0.10;;;;;;;;;;6183529;22;20023;-85
2022/08/08 11:06:33;;;;;;;0.20;0.10;;;;;;;;;;6182718;22;20050;-86
2022/08/08 11:09:00;;;;;;;0.20;0.10;;;;;;;;;;6183085;22;20023;-88
2022/08/08 11:11:26;;;;;;;0.20;0.10;;;;;;;;;;6233368;22;20068;-86
2022/08/08 11:13:54;;;;;;;0.20;0.10;;;;;;;;;;6287935;22;20456;-84
2022/08/08 11:16:22;;;;;;;0.20;0.10;;;;;;;;;;6182263;23;20111;-84
2022/08/08 11:18:50;;;;;;;0.20;0.10;;;;;;;;;;6182705;22;20042;-83
2022/08/08 11:21:17;;;;;;;0.20;0.10;;;;;;;;;;6182449;22;20030;-83
2022/08/08 11:23:43;;;;;;;0.20;0.10;;;;;;;;;;6183607;22;20016;-85
2022/08/08 11:26:18;;;;;;;0.20;0.10;;;;;;;;;;6182904;22;20056;-88
2022/08/08 11:28:45;;;;;;;0.20;0.10;;;;;;;;;;6233169;22;20012;-86
2022/08/08 11:31:14;;;;;;;0.20;0.10;;;;;;;;;;6183138;22;20012;-85
2022/08/08 11:33:48;;;;;;;0.20;0.10;;;;;;;;;;6231728;22;20035;-85
2022/08/08 11:36:14;;;;;;;0.20;0.10;;;;;;;;;;6182654;22;20066;-84
2022/08/08 11:38:41;;;;;;;0.20;0.10;;;;;;;;;;6233235;22;20023;-86
2022/08/08 11:41:08;;;;;;;0.20;0.10;;;;;;;;;;6234538;22;20576;-86
2022/08/08 11:43:34;;;;;;;0.20;0.10;;;;;;;;;;6289132;22;20391;-85
2022/08/08 11:46:00;;;;;;;0.20;0.10;;;;;;;;;;6182790;23;20051;-84
2022/08/08 11:48:27;;;;;;;0.20;0.10;;;;;;;;;;6288244;22;20012;-86
2022/08/08 11:50:54;;;;;;;0.20;0.10;;;;;;;;;;6232686;22;20050;-84
2022/08/08 11:53:20;;;;;;;0.20;0.10;;;;;;;;;;6182813;22;20328;-84
2022/08/08 11:55:50;;;;;;;0.20;0.10;;;;;;;;;;6231950;22;20016;-84
2022/08/08 11:58:17;;;;;;;0.20;0.10;;;;;;;;;;6287719;22;20012;-85
2022/08/08 12:00:47;;;;;;;0.20;0.10;;;;;;;;;;6230650;22;20008;-84
2022/08/08 12:03:21;;;;;;;0.20;0.10;;;;;;;;;;6287338;22;20116;-84
2022/08/08 12:05:47;;;;;;;0.20;0.10;;;;;;;;;;6182338;22;20024;-84
2022/08/08 12:08:13;;;;;;;0.20;0.10;;;;;;;;;;6181734;22;20016;-84
2022/08/08 12:10:47;;;;;;;0.20;0.10;;;;;;;;;;6286225;22;20016;-84
2022/08/08 12:13:14;;;;;;;0.20;0.10;;;;;;;;;;6231975;22;20012;-83
2022/08/08 12:15:47;;;;;;;0.20;0.10;;;;;;;;;;6181708;22;20052;-83
2022/08/08 12:18:19;;;;;;;0.20;0.10;;;;;;;;;;6287929;22;20145;-82
2022/08/08 12:20:45;;;;;;;;;;;;;;;;;;6182646;22;20020;-83
2022/08/08 12:23:11;;;;;;;0.20;0.10;;;;;;;;;;6232351;23;19945;-84
2022/08/08 12:25:38;;;;;;;0.20;0.10;;;;;;;;;;6287014;22;20547;-84
2022/08/08 12:28:10;;;;;;;0.20;0.10;;;;;;;;;;6181340;22;20386;-84
2022/08/08 12:30:36;;;;;;;;;;;;;;;;;;6182492;22;20016;-84
2022/08/08 12:33:02;;;;;;;0.20;0.10;;;;;;;;;;6206548;23;19916;-86
2022/08/08 12:35:37;;;;;;;0.20;0.10;;;;;;;;;;6182253;23;20023;-84
2022/08/08 12:38:08;;;;;;;0.20;0.10;;;;;;;;;;6181771;22;20044;-85
2022/08/08 12:40:47;;;;;;;0.20;0.10;;;;;;;;;;6182919;22;20039;-85
2022/08/08 12:43:14;;;;;;;0.20;0.10;;;;;;;;;;6233015;22;20498;-83
2022/08/08 12:45:41;;;;;;;0.20;0.10;;;;;;;;;;6181973;22;20476;-85
2022/08/08 12:48:17;;;;;;;0.20;0.10;;;;;;;;;;6181463;22;20020;-85
2022/08/08 12:50:44;;;;;;;0.20;0.10;;;;;;;;;;6181895;23;20020;-85
2022/08/08 12:53:28;;;;;;;0.20;0.10;;;;;;;;;;6181970;23;20099;-86
2022/08/08 12:56:01;;;;;;;0.20;0.10;;;;;;;;;;6231971;22;20020;-84
2022/08/08 12:58:47;;;;;;;0.20;0.10;;;;;;;;;;6181791;22;20099;-85
2022/08/08 13:01:16;;;;;;;0.20;0.10;;;;;;;;;;6181731;22;20012;-89
2022/08/08 13:03:49;;;;;;;0.20;0.10;;;;;;;;;;6287585;22;20097;-87
2022/08/08 13:06:16;;;;;;;0.20;0.10;;;;;;;;;;6183601;23;20072;-85
2022/08/08 13:08:46;;;;;;;0.20;0.10;;;;;;;;;;6181368;22;20460;-83
2022/08/08 13:11:38;;;;;;;0.20;0.10;;;;;;;;;;6182064;22;20083;-84
2022/08/08 13:14:14;;;;;;;0.20;0.10;;;;;;;;;;6209627;22;20527;-88
2022/08/08 13:16:40;;;;;;;0.20;0.10;;;;;;;;;;6231474;22;20719;-85
2022/08/08 13:19:10;;;;;;;0.20;0.10;;;;;;;;;;6180844;22;20012;-85
2022/08/08 13:21:46;;;;;;;0.20;0.10;;;;;;;;;;6182480;22;20019;-86
2022/08/08 13:24:12;;;;;;;0.20;0.10;;;;;;;;;;6182542;22;20091;-85
2022/08/08 13:26:38;;;;;;;0.20;0.10;;;;;;;;;;6233512;22;20008;-84
2022/08/08 13:29:11;;;;;;;0.20;0.10;;;;;;;;;;6289180;22;20491;-85
2022/08/08 13:31:47;;;;;;;0.20;0.10;;;;;;;;;;6182091;22;20013;-82
2022/08/08 13:34:21;;;;;;;0.20;0.10;;;;;;;;;;6288977;22;20064;-84
2022/08/08 13:36:47;;;;;;;0.20;0.10;;;;;;;;;;6182951;23;20008;-85
2022/08/08 13:39:14;;;;;;;0.20;0.10;;;;;;;;;;6182675;22;20019;-84
2022/08/08 13:41:41;;;;;;;0.20;0.10;;;;;;;;;;6288004;22;20100;-84
2022/08/08 13:44:07;;;;;;;0.20;0.10;;;;;;;;;;6232913;22;20100;-83
2022/08/08 13:46:33;;;;;;;0.20;0.10;;;;;;;;;;6232978;22;20012;-84
2022/08/08 13:48:59;;;;;;;0.20;0.10;;;;;;;;;;6182570;23;20012;-84
2022/08/08 13:51:25;;;;;;;0.20;0.10;;;;;;;;;;6183335;22;20038;-84
2022/08/08 13:53:53;;;;;;;0.20;0.10;;;;;;;;;;6287968;22;20050;-84
2022/08/08 13:56:29;;;;;;;0.20;0.10;;;;;;;;;;6287916;22;20496;-84
2022/08/08 13:58:56;;;;;;;0.20;0.10;;;;;;;;;;6182533;22;20013;-83
2022/08/08 14:01:22;;;;;;;0.20;0.10;;;;;;;;;;6232851;22;20012;-84
2022/08/08 14:03:55;;;;;;;0.20;0.10;;;;;;;;;;6183057;22;20137;-83
2022/08/08 14:06:22;;;;;;;0.20;0.10;;;;;;;;;;6233013;22;20012;-83
2022/08/08 14:08:48;;;;;;;0.20;0.10;;;;;;;;;;6233109;22;20460;-86
2022/08/08 14:11:19;;;;;;;0.20;0.10;;;;;;;;;;6183177;22;20091;-86
2022/08/08 14:13:46;;;;;;;0.20;0.10;;;;;;;;;;6183067;22;20012;-84
2022/08/08 14:16:13;;;;;;;0.20;0.10;;;;;;;;;;6212451;22;20044;-85
2022/08/08 14:18:52;;;;;;;0.20;0.10;;;;;;;;;;6152691;23;20481;-85
2022/08/08 14:21:21;;;;;;;0.20;0.10;;;;;;;;;;6178412;23;20027;-84
2022/08/08 14:23:56;;;;;;;0.20;0.10;;;;;;;;;;6180478;22;20020;-85
2022/08/08 14:26:26;;;;;;;0.20;0.10;;;;;;;;;;6155742;23;20017;-85
2022/08/08 14:28:56;;;;;;;0.20;0.10;;;;;;;;;;6153964;23;20016;-85
2022/08/08 14:31:23;;;;;;;0.20;0.10;;;;;;;;;;6177977;23;20457;-86
2022/08/08 14:33:56;;;;;;;0.20;0.10;;;;;;;;;;6152903;22;20066;-85
2022/08/08 14:36:33;;;;;;;0.20;0.10;;;;;;;;;;6152599;23;20023;-85
2022/08/08 14:38:59;;;;;;;0.20;0.10;;;;;;;;;;6178342;23;20016;-85
2022/08/08 14:41:26;;;;;;;0.20;0.10;;;;;;;;;;6152802;22;20012;-84
2022/08/08 14:43:53;;;;;;;0.20;0.10;;;;;;;;;;6152813;23;20068;-85
2022/08/08 14:46:20;;;;;;;0.20;0.10;;;;;;;;;;6177527;23;20103;-85
2022/08/08 14:48:47;;;;;;;0.20;0.10;;;;;;;;;;6177852;22;20120;-86
2022/08/08 14:51:18;;;;;;;0.20;0.10;;;;;;;;;;6152909;23;20093;-84
2022/08/08 14:53:44;;;;;;;0.20;0.10;;;;;;;;;;6154325;23;20491;-83
2022/08/08 14:56:11;;;;;;;0.20;0.10;;;;;;;;;;6152483;23;20023;-86
2022/08/08 14:58:44;;;;;;;0.20;0.10;;;;;;;;;;6202314;22;20021;-86
2022/08/08 15:01:32;;;;;;;0.20;0.10;;;;;;;;;;6153250;23;20008;-86
2022/08/08 15:03:59;;;;;;;0.20;0.10;;;;;;;;;;6153752;22;20475;-85
2022/08/08 15:06:26;;;;;;;0.20;0.10;;;;;;;;;;6153767;23;20398;-85
2022/08/08 15:08:52;;;;;;;0.20;0.10;;;;;;;;;;6152792;23;20020;-85
2022/08/08 15:11:18;;;;;;;0.20;0.10;;;;;;;;;;6152767;23;20360;-85
2022/08/08 15:13:47;;;;;;;0.20;0.10;;;;;;;;;;6152584;23;20023;-86
2022/08/08 15:16:19;;;;;;;0.20;0.10;;;;;;;;;;6177768;23;20013;-85
2022/08/08 15:18:56;;;;;;;;;;;;;;;;;;;;;
2022/08/08 15:21:25;;;;;;;0.20;0.10;;;;;;;;;;6155007;23;20012;-84
2022/08/08 15:23:51;;;;;;;0.20;0.10;;;;;;;;;;6153762;23;20479;-85
2022/08/08 15:26:17;;;;;;;0.20;0.10;;;;;;;;;;6152406;23;20330;-86
2022/08/08 15:28:46;;;;;;;0.20;0.10;;;;;;;;;;6149462;23;20447;-86
2022/08/08 15:31:12;;;;;;;0.20;0.10;;;;;;;;;;6151653;23;20549;-87